createdAt,value
2022-10-12T00:01:10.407Z,3.58
2022-10-12T00:03:37.845Z,3.55
2022-10-12T00:06:11.331Z,3.63
2022-10-12T00:08:39.976Z,2.80
2022-10-12T00:11:08.695Z,3.47
2022-10-12T00:13:36.034Z,3.33
2022-10-12T00:16:11.107Z,3.42
2022-10-12T00:18:38.556Z,3.45
2022-10-12T00:21:15.991Z,3.28
2022-10-12T00:23:44.395Z,2.75
2022-10-12T00:26:17.792Z,3.28
2022-10-12T00:28:45.692Z,3.78
2022-10-12T00:31:16.575Z,3.75
2022-10-12T00:33:44.155Z,3.70
2022-10-12T00:36:34.006Z,3.60
2022-10-12T00:39:02.571Z,4.20
2022-10-12T00:41:32.163Z,4.05
2022-10-12T00:44:00.141Z,4.45
2022-10-12T00:46:32.865Z,3.63
2022-10-12T00:49:12.643Z,3.40
2022-10-12T00:51:42.153Z,3.33
2022-10-12T00:54:13.450Z,3.10
2022-10-12T00:56:43.189Z,3.13
2022-10-12T00:59:16.941Z,2.90
2022-10-12T01:01:44.325Z,3.28
2022-10-12T01:04:11.700Z,3.47
2022-10-12T01:06:38.834Z,3.30
2022-10-12T01:09:05.991Z,3.35
2022-10-12T01:11:33.153Z,3.17
2022-10-12T01:14:00.588Z,2.38
2022-10-12T01:16:33.986Z,2.53
2022-10-12T01:19:10.603Z,3.08
2022-10-12T01:21:47.590Z,3.67
2022-10-12T01:24:26.769Z,3.22
2022-10-12T01:27:33.114Z,3.10
2022-10-12T01:30:24.205Z,3.53
2022-10-12T01:33:13.780Z,3.70
2022-10-12T01:36:04.123Z,3.28
2022-10-12T01:38:53.675Z,2.80
2022-10-12T01:41:25.008Z,3.58
2022-10-12T01:43:52.791Z,3.07
2022-10-12T01:46:19.857Z,3.80
2022-10-12T01:48:57.289Z,3.70
2022-10-12T01:51:59.074Z,3.30
2022-10-12T01:54:41.099Z,3.45
2022-10-12T01:57:21.092Z,3.70
2022-10-12T02:00:08.525Z,3.70
2022-10-12T02:03:10.440Z,3.33
2022-10-12T02:05:46.673Z,3.03
2022-10-12T02:08:42.514Z,2.80
2022-10-12T02:11:18.795Z,2.63
2022-10-12T02:14:03.179Z,2.97
2022-10-12T02:16:45.155Z,2.85
2022-10-12T02:19:17.443Z,2.70
2022-10-12T02:24:14.064Z,3.00
2022-10-12T02:26:43.359Z,3.13
2022-10-12T02:29:14.548Z,3.05
2022-10-12T02:31:55.208Z,3.10
2022-10-12T02:34:32.815Z,2.70
2022-10-12T02:37:18.658Z,2.53
2022-10-12T02:39:54.894Z,2.40
2022-10-12T02:42:41.814Z,3.08
2022-10-12T02:45:20.780Z,2.85
2022-10-12T02:47:50.733Z,2.65
2022-10-12T02:50:19.560Z,2.25
2022-10-12T02:52:48.104Z,2.00
2022-10-12T02:55:15.701Z,3.28
2022-10-12T02:57:43.150Z,2.53
2022-10-12T03:00:10.865Z,2.65
2022-10-12T03:02:38.462Z,2.20
2022-10-12T03:05:06.062Z,2.28
2022-10-12T03:07:33.035Z,2.70
2022-10-12T03:10:00.168Z,3.00
2022-10-12T03:12:27.241Z,2.95
2022-10-12T03:14:54.291Z,2.78
2022-10-12T03:17:21.542Z,2.90
2022-10-12T03:19:48.694Z,2.90
2022-10-12T03:22:15.919Z,2.55
2022-10-12T03:24:42.961Z,3.10
2022-10-12T03:27:10.107Z,2.45
2022-10-12T03:29:37.173Z,2.97
2022-10-12T03:32:04.517Z,1.90
2022-10-12T03:34:31.595Z,2.80
2022-10-12T03:36:58.652Z,2.85
2022-10-12T03:39:25.834Z,2.47
2022-10-12T03:41:52.904Z,2.78
2022-10-12T03:44:20.048Z,3.22
2022-10-12T03:46:47.125Z,3.42
2022-10-12T03:49:14.271Z,2.28
2022-10-12T03:51:41.400Z,2.42
2022-10-12T03:54:08.478Z,1.60
2022-10-12T03:56:36.045Z,2.35
2022-10-12T03:59:03.329Z,2.65
2022-10-12T04:01:30.525Z,2.28
2022-10-12T04:03:57.680Z,2.80
2022-10-12T04:06:24.793Z,2.42
2022-10-12T04:08:52.003Z,2.85
2022-10-12T04:11:20.454Z,2.85
2022-10-12T04:13:47.995Z,2.75
2022-10-12T04:16:15.142Z,3.22
2022-10-12T04:18:42.455Z,2.35
2022-10-12T04:21:13.709Z,2.80
2022-10-12T04:23:41.909Z,1.70
2022-10-12T04:26:09.767Z,2.47
2022-10-12T04:28:36.968Z,2.45
2022-10-12T04:31:04.101Z,2.70
2022-10-12T04:33:31.190Z,2.35
2022-10-12T04:35:58.244Z,3.45
2022-10-12T04:38:25.555Z,2.05
2022-10-12T04:40:52.648Z,2.80
2022-10-12T04:43:19.830Z,3.78
2022-10-12T04:45:55.551Z,2.13
2022-10-12T04:48:23.896Z,2.05
2022-10-12T04:50:51.222Z,1.90
2022-10-12T04:53:18.681Z,1.75
2022-10-12T04:55:45.777Z,1.83
2022-10-12T04:58:12.999Z,2.75
2022-10-12T05:00:40.175Z,2.47
2022-10-12T05:03:07.433Z,2.75
2022-10-12T05:05:36.066Z,3.03
2022-10-12T05:08:04.340Z,2.58
2022-10-12T05:10:31.633Z,2.50
2022-10-12T05:12:58.891Z,2.85
2022-10-12T05:15:26.323Z,2.33
2022-10-12T05:17:53.556Z,2.70
2022-10-12T05:20:20.840Z,2.58
2022-10-12T05:22:48.136Z,2.40
2022-10-12T05:25:15.681Z,2.70
2022-10-12T05:27:42.913Z,3.00
2022-10-12T05:30:10.593Z,2.53
2022-10-12T05:32:38.084Z,2.75
2022-10-12T05:35:05.810Z,2.90
2022-10-12T05:37:34.120Z,2.42
2022-10-12T05:40:01.248Z,2.83
2022-10-12T05:42:28.352Z,2.30
2022-10-12T05:44:55.475Z,2.47
2022-10-12T05:47:22.594Z,2.70
2022-10-12T05:49:49.706Z,2.75
2022-10-12T05:52:16.954Z,2.55
2022-10-12T05:54:44.063Z,2.72
2022-10-12T05:57:11.379Z,2.75
2022-10-12T05:59:38.443Z,3.70
2022-10-12T06:02:05.590Z,2.22
2022-10-12T06:04:32.790Z,2.80
2022-10-12T06:06:59.900Z,2.22
2022-10-12T06:09:26.990Z,2.42
2022-10-12T06:11:54.258Z,2.70
2022-10-12T06:14:21.690Z,2.30
2022-10-12T06:16:51.141Z,2.80
2022-10-12T06:19:21.721Z,3.08
2022-10-12T06:21:48.764Z,2.92
2022-10-12T06:24:16.143Z,2.95
2022-10-12T06:26:43.671Z,3.00
2022-10-12T06:29:10.998Z,2.80
2022-10-12T06:31:39.857Z,3.28
2022-10-12T06:34:07.106Z,3.33
2022-10-12T06:36:34.327Z,3.33
2022-10-12T06:39:01.624Z,3.72
2022-10-12T06:41:28.726Z,3.58
2022-10-12T06:43:55.878Z,2.75
2022-10-12T06:46:23.143Z,3.58
2022-10-12T06:48:53.168Z,4.05
2022-10-12T06:51:20.507Z,4.53
2022-10-12T06:53:47.620Z,4.00
2022-10-12T06:56:14.893Z,2.85
2022-10-12T06:58:42.192Z,2.75
2022-10-12T07:01:10.817Z,2.83
2022-10-12T07:03:38.221Z,3.53
2022-10-12T07:06:13.401Z,4.10
2022-10-12T07:08:41.622Z,4.30
2022-10-12T07:11:10.626Z,4.43
2022-10-12T07:13:37.832Z,3.90
2022-10-12T07:16:05.146Z,4.05
2022-10-12T07:18:32.624Z,3.90
2022-10-12T07:21:00.152Z,4.00
2022-10-12T07:23:28.183Z,3.63
2022-10-12T07:25:55.409Z,3.72
2022-10-12T07:28:22.950Z,3.80
2022-10-12T07:30:50.279Z,4.03
2022-10-12T07:33:17.590Z,3.97
2022-10-12T07:36:12.823Z,4.18
2022-10-12T07:38:39.834Z,4.32
2022-10-12T07:41:06.927Z,3.63
2022-10-12T07:43:34.044Z,3.70
2022-10-12T07:46:01.132Z,4.18
2022-10-12T07:48:28.223Z,4.25
2022-10-12T07:50:55.363Z,2.92
2022-10-12T07:53:22.475Z,3.25
2022-10-12T07:55:50.242Z,3.15
2022-10-12T07:58:17.434Z,3.40
2022-10-12T08:00:44.529Z,3.10
2022-10-12T08:03:11.609Z,3.38
2022-10-12T08:05:38.655Z,3.72
2022-10-12T08:08:05.962Z,3.95
2022-10-12T08:10:35.237Z,4.20
2022-10-12T08:13:03.174Z,3.42
2022-10-12T08:15:30.484Z,3.25
2022-10-12T08:17:57.683Z,3.70
2022-10-12T08:20:25.125Z,3.38
2022-10-12T08:22:52.283Z,2.35
2022-10-12T08:25:19.621Z,2.63
2022-10-12T08:27:46.906Z,2.00
2022-10-12T08:30:14.633Z,2.05
2022-10-12T08:32:41.872Z,2.15
2022-10-12T08:35:09.484Z,2.03
2022-10-12T08:37:36.671Z,2.22
2022-10-12T08:40:04.821Z,2.45
2022-10-12T08:43:15.430Z,2.17
2022-10-12T08:45:53.773Z,2.67
2022-10-12T08:48:26.233Z,2.60
2022-10-12T08:51:02.171Z,2.15
2022-10-12T08:53:39.477Z,1.95
2022-10-12T08:56:06.903Z,2.30
2022-10-12T08:58:38.022Z,1.35
2022-10-12T09:01:26.303Z,1.85
2022-10-12T09:03:56.394Z,1.80
2022-10-12T09:06:30.061Z,1.50
2022-10-12T09:09:09.013Z,1.80
2022-10-12T09:12:09.086Z,2.05
2022-10-12T09:14:38.965Z,2.03
2022-10-12T09:17:41.082Z,2.28
2022-10-12T09:20:21.554Z,3.03
2022-10-12T09:22:52.535Z,2.90
2022-10-12T09:25:24.310Z,3.63
2022-10-12T09:27:52.073Z,2.72
2022-10-12T09:30:21.077Z,2.60
2022-10-12T09:33:14.696Z,3.05
2022-10-12T09:35:44.182Z,3.40
2022-10-12T09:38:11.813Z,3.78
2022-10-12T09:40:40.148Z,3.00
2022-10-12T09:43:08.931Z,2.72
2022-10-12T09:45:37.362Z,2.53
2022-10-12T09:48:13.705Z,3.25
2022-10-12T09:50:55.118Z,3.20
2022-10-12T09:53:29.539Z,2.50
2022-10-12T09:56:01.376Z,3.05
2022-10-12T09:58:30.118Z,2.53
2022-10-12T10:01:29.579Z,2.25
2022-10-12T10:04:29.566Z,2.83
2022-10-12T10:07:33.503Z,3.05
2022-10-12T10:10:13.587Z,2.80
2022-10-12T10:12:49.893Z,2.85
2022-10-12T10:15:24.352Z,2.85
2022-10-12T10:17:54.795Z,2.05
2022-10-12T10:20:30.395Z,2.72
2022-10-12T10:22:58.353Z,3.05
2022-10-12T10:25:26.123Z,2.70
2022-10-12T10:28:22.531Z,2.67
2022-10-12T10:31:07.893Z,3.30
2022-10-12T10:33:36.325Z,2.08
2022-10-12T10:36:20.483Z,2.70
2022-10-12T10:39:00.086Z,2.42
2022-10-12T10:41:36.696Z,2.75
2022-10-12T10:44:05.735Z,3.17
2022-10-12T10:46:36.054Z,2.22
2022-10-12T10:49:07.771Z,2.22
2022-10-12T10:51:57.931Z,2.33
2022-10-12T10:54:29.677Z,2.42
2022-10-12T10:57:23.685Z,2.42
2022-10-12T11:00:09.305Z,2.63
2022-10-12T11:02:56.570Z,2.17
2022-10-12T11:05:26.694Z,2.50
2022-10-12T11:07:55.195Z,2.67
2022-10-12T11:10:34.066Z,2.50
2022-10-12T11:13:15.089Z,2.20
2022-10-12T11:15:51.726Z,2.60
2022-10-12T11:18:23.514Z,2.08
2022-10-12T11:21:02.431Z,2.40
2022-10-12T11:23:51.186Z,2.90
2022-10-12T11:26:34.111Z,3.05
2022-10-12T11:29:01.668Z,2.20
2022-10-12T11:31:36.380Z,2.72
2022-10-12T11:34:13.311Z,3.25
2022-10-12T11:37:07.502Z,2.78
2022-10-12T11:39:43.476Z,2.70
2022-10-12T11:42:21.976Z,2.97
2022-10-12T11:44:50.974Z,2.95
2022-10-12T11:47:38.277Z,2.70
2022-10-12T11:50:33.238Z,3.10
2022-10-12T11:53:03.678Z,2.50
2022-10-12T11:55:33.793Z,3.15
2022-10-12T11:58:14.034Z,2.83
2022-10-12T12:01:07.484Z,4.10
2022-10-12T12:04:39.758Z,3.13
2022-10-12T12:07:37.763Z,3.05
2022-10-12T12:10:28.013Z,3.40
2022-10-12T12:13:14.693Z,2.72
2022-10-12T12:15:52.427Z,2.85
2022-10-12T12:18:21.214Z,2.53
2022-10-12T12:20:48.305Z,2.20
2022-10-12T12:23:24.262Z,3.17
2022-10-12T12:26:17.115Z,2.83
2022-10-12T12:29:07.472Z,3.72
2022-10-12T12:31:34.980Z,2.70
2022-10-12T12:34:14.932Z,2.58
2022-10-12T12:36:47.251Z,2.55
2022-10-12T12:39:30.584Z,2.67
2022-10-12T12:42:09.439Z,2.20
2022-10-12T12:44:42.765Z,2.25
2022-10-12T12:50:00.987Z,3.05
2022-10-12T12:52:31.841Z,3.08
2022-10-12T12:55:26.043Z,2.10
2022-10-12T12:57:59.282Z,2.58
2022-10-12T13:00:56.127Z,2.75
2022-10-12T13:03:25.940Z,2.67
2022-10-12T13:06:30.201Z,2.47
2022-10-12T13:09:00.139Z,2.50
2022-10-12T13:11:36.395Z,2.10
2022-10-12T13:14:42.330Z,2.03
2022-10-12T13:17:34.151Z,1.58
2022-10-12T13:20:18.144Z,1.63
2022-10-12T13:22:47.496Z,2.70
2022-10-12T13:25:46.173Z,2.08
2022-10-12T13:28:25.637Z,1.45
2022-10-12T13:31:01.251Z,1.83
2022-10-12T13:33:51.800Z,1.50
2022-10-12T13:36:26.806Z,1.70
2022-10-12T13:38:59.684Z,1.90
2022-10-12T13:41:30.478Z,1.50
2022-10-12T13:44:03.908Z,2.13
2022-10-12T13:46:59.424Z,1.90
2022-10-12T13:49:28.262Z,1.80
2022-10-12T13:52:20.192Z,2.53
2022-10-12T13:54:49.789Z,2.13
2022-10-12T13:57:39.240Z,2.33
2022-10-12T14:00:15.241Z,1.67
2022-10-12T14:02:53.023Z,1.67
2022-10-12T14:05:22.806Z,1.73
2022-10-12T14:07:52.555Z,1.73
2022-10-12T14:10:28.404Z,1.65
2022-10-12T14:12:56.846Z,1.95
2022-10-12T14:15:27.968Z,1.80
2022-10-12T14:17:55.131Z,1.75
2022-10-12T14:20:38.840Z,1.77
2022-10-12T14:23:21.296Z,2.03
2022-10-12T14:25:56.347Z,2.00
2022-10-12T14:28:37.690Z,1.90
2022-10-12T14:31:05.039Z,1.80
2022-10-12T14:33:32.708Z,1.50
2022-10-12T14:36:25.131Z,2.08
2022-10-12T14:39:10.241Z,2.45
2022-10-12T14:41:43.583Z,2.75
2022-10-12T14:44:14.559Z,1.80
2022-10-12T14:47:05.866Z,2.13
2022-10-12T14:49:43.080Z,1.95
2022-10-12T14:52:37.580Z,2.03
2022-10-12T14:55:06.325Z,1.92
2022-10-12T14:57:33.456Z,2.10
2022-10-12T15:00:04.268Z,1.70
2022-10-12T15:02:33.245Z,1.95
2022-10-12T15:05:01.252Z,1.83
2022-10-12T15:07:33.981Z,2.30
2022-10-12T15:10:03.015Z,2.03
2022-10-12T15:12:30.893Z,1.67
2022-10-12T15:15:00.603Z,1.75
2022-10-12T15:17:28.115Z,2.72
2022-10-12T15:19:55.779Z,2.08
2022-10-12T15:22:26.201Z,2.47
2022-10-12T15:24:55.827Z,1.95
2022-10-12T15:27:22.933Z,2.17
2022-10-12T15:29:50.218Z,2.17
2022-10-12T15:32:19.415Z,2.53
2022-10-12T15:34:46.782Z,2.10
2022-10-12T15:37:14.194Z,2.35
2022-10-12T15:39:42.713Z,1.60
2022-10-12T15:42:12.217Z,2.47
2022-10-12T15:44:41.315Z,1.70
2022-10-12T15:47:10.963Z,1.70
2022-10-12T15:49:39.301Z,1.95
2022-10-12T15:52:11.787Z,2.03
2022-10-12T15:54:38.995Z,1.83
2022-10-12T15:57:07.179Z,2.10
2022-10-12T15:59:35.401Z,2.50
2022-10-12T16:02:02.647Z,2.42
2022-10-12T16:04:29.817Z,2.28
2022-10-12T16:06:56.974Z,2.00
2022-10-12T16:09:24.149Z,2.10
2022-10-12T16:11:51.420Z,2.08
2022-10-12T16:14:18.664Z,2.38
2022-10-12T16:16:45.835Z,2.30
2022-10-12T16:19:13.255Z,3.10
2022-10-12T16:21:40.398Z,2.30
2022-10-12T16:24:07.596Z,2.70
2022-10-12T16:26:34.795Z,2.90
2022-10-12T16:29:01.977Z,1.92
2022-10-12T16:31:29.166Z,3.13
2022-10-12T16:33:56.292Z,2.47
2022-10-12T16:36:23.445Z,1.98
2022-10-12T16:38:50.556Z,3.20
2022-10-12T16:41:18.826Z,2.80
2022-10-12T16:43:46.228Z,2.47
2022-10-12T16:46:13.647Z,2.35
2022-10-12T16:48:40.947Z,2.88
2022-10-12T16:51:09.509Z,2.25
2022-10-12T16:53:36.730Z,3.50
2022-10-12T16:56:04.918Z,2.85
2022-10-12T16:58:33.031Z,4.82
2022-10-12T17:01:11.443Z,3.97
2022-10-12T17:03:38.954Z,3.60
2022-10-12T17:06:06.802Z,3.85
2022-10-12T17:08:35.580Z,4.57
2022-10-12T17:11:10.251Z,3.95
2022-10-12T17:13:39.517Z,3.90
2022-10-12T17:16:26.840Z,2.70
2022-10-12T17:18:59.153Z,3.03
2022-10-12T17:21:27.539Z,2.58
2022-10-12T17:23:59.396Z,2.72
2022-10-12T17:26:26.563Z,2.67
2022-10-12T17:28:53.987Z,2.55
2022-10-12T17:31:21.431Z,2.38
2022-10-12T17:33:49.298Z,2.70
2022-10-12T17:36:16.819Z,2.42
2022-10-12T17:38:48.283Z,2.88
2022-10-12T17:41:15.457Z,2.25
2022-10-12T17:43:42.611Z,2.75
2022-10-12T17:46:09.860Z,2.50
2022-10-12T17:48:36.957Z,2.88
2022-10-12T17:51:10.041Z,3.63
2022-10-12T17:53:37.186Z,2.97
2022-10-12T17:56:05.971Z,2.47
2022-10-12T17:58:33.300Z,3.25
2022-10-12T18:01:20.397Z,2.50
2022-10-12T18:03:48.179Z,2.33
2022-10-12T18:06:18.855Z,2.25
2022-10-12T18:08:46.281Z,2.25
2022-10-12T18:11:13.965Z,2.35
2022-10-12T18:13:44.662Z,2.63
2022-10-12T18:16:12.325Z,3.42
2022-10-12T18:18:39.906Z,2.55
2022-10-12T18:21:09.336Z,3.35
2022-10-12T18:23:47.016Z,2.50
2022-10-12T18:26:19.830Z,3.55
2022-10-12T18:28:51.333Z,3.40
2022-10-12T18:31:24.211Z,3.17
2022-10-12T18:33:52.362Z,3.97
2022-10-12T18:36:20.900Z,3.03
2022-10-12T18:38:48.141Z,2.88
2022-10-12T18:41:19.251Z,3.75
2022-10-12T18:43:46.768Z,3.53
2022-10-12T18:46:28.645Z,3.17
2022-10-12T18:48:57.000Z,2.60
2022-10-12T18:51:33.378Z,3.00
2022-10-12T18:54:01.888Z,3.70
2022-10-12T18:56:30.781Z,4.32
2022-10-12T18:59:00.767Z,5.90
2022-10-12T19:01:29.523Z,4.75
2022-10-12T19:03:58.905Z,4.00
2022-10-12T19:06:32.701Z,2.85
2022-10-12T19:09:01.890Z,3.38
2022-10-12T19:11:29.865Z,2.67
2022-10-12T19:14:00.660Z,4.15
2022-10-12T19:16:28.256Z,3.78
2022-10-12T19:19:00.039Z,4.05
2022-10-12T19:21:27.638Z,4.18
2022-10-12T19:23:54.879Z,4.00
2022-10-12T19:26:25.132Z,3.63
2022-10-12T19:28:54.709Z,3.20
2022-10-12T19:31:26.334Z,4.57
2022-10-12T19:33:59.082Z,2.92
2022-10-12T19:36:29.729Z,3.70
2022-10-12T19:39:02.455Z,4.07
2022-10-12T19:41:30.466Z,3.90
2022-10-12T19:43:59.254Z,3.85
2022-10-12T19:46:27.148Z,4.03
2022-10-12T19:48:56.509Z,3.75
2022-10-12T19:51:25.382Z,4.25
2022-10-12T19:53:57.085Z,3.40
2022-10-12T19:56:26.155Z,3.38
2022-10-12T19:58:55.694Z,3.53
2022-10-12T20:01:28.584Z,3.17
2022-10-12T20:03:56.084Z,3.20
2022-10-12T20:06:25.358Z,3.28
2022-10-12T20:08:54.017Z,3.63
2022-10-12T20:11:24.541Z,3.95
2022-10-12T20:13:52.804Z,3.97
2022-10-12T20:16:20.779Z,3.22
2022-10-12T20:18:49.030Z,3.63
2022-10-12T20:21:19.218Z,3.25
2022-10-12T20:23:46.953Z,2.70
2022-10-12T20:26:17.906Z,2.53
2022-10-12T20:28:45.647Z,3.05
2022-10-12T20:31:13.784Z,2.65
2022-10-12T20:33:41.365Z,2.80
2022-10-12T20:36:18.649Z,3.88
2022-10-12T20:38:46.240Z,3.90
2022-10-12T20:41:15.195Z,3.25
2022-10-12T20:43:42.670Z,2.45
2022-10-12T20:46:15.445Z,2.80
2022-10-12T20:48:44.513Z,3.50
2022-10-12T20:51:24.863Z,1.83
2022-10-12T20:53:53.469Z,2.60
2022-10-12T20:58:53.432Z,2.90
2022-10-12T21:01:21.182Z,3.80
2022-10-12T21:03:48.716Z,3.72
2022-10-12T21:06:20.019Z,2.95
2022-10-12T21:08:55.629Z,2.70
2022-10-12T21:11:23.609Z,3.08
2022-10-12T21:13:51.081Z,3.08
2022-10-12T21:16:27.186Z,2.60
2022-10-12T21:18:59.077Z,3.08
2022-10-12T21:21:29.609Z,2.13
2022-10-12T21:24:06.067Z,2.63
2022-10-12T21:26:42.281Z,2.55
2022-10-12T21:29:09.986Z,3.17
2022-10-12T21:31:37.934Z,2.97
2022-10-12T21:34:12.547Z,3.63
2022-10-12T21:36:39.814Z,2.38
2022-10-12T21:39:19.545Z,2.40
2022-10-12T21:41:48.141Z,2.05
2022-10-12T21:44:15.601Z,1.55
2022-10-12T21:46:43.202Z,2.58
2022-10-12T21:49:11.084Z,2.42
2022-10-12T21:51:38.843Z,1.90
2022-10-12T21:54:16.262Z,2.47
2022-10-12T21:56:43.939Z,2.00
2022-10-12T21:59:22.745Z,1.50
2022-10-12T22:02:22.604Z,2.22
2022-10-12T22:04:53.119Z,1.67
2022-10-12T22:07:20.214Z,1.90
2022-10-12T22:09:47.419Z,2.38
2022-10-12T22:12:14.535Z,2.20
2022-10-12T22:14:41.783Z,1.90
2022-10-12T22:17:11.071Z,1.60
2022-10-12T22:19:38.653Z,1.48
2022-10-12T22:22:05.879Z,1.27
2022-10-12T22:24:32.980Z,1.70
2022-10-12T22:27:00.195Z,1.58
2022-10-12T22:29:27.309Z,1.52
2022-10-12T22:31:54.422Z,1.50
2022-10-12T22:34:21.555Z,1.45
2022-10-12T22:36:48.629Z,1.50
2022-10-12T22:39:24.969Z,1.67
2022-10-12T22:41:52.104Z,1.50
2022-10-12T22:44:19.202Z,2.53
2022-10-12T22:46:46.351Z,1.83
2022-10-12T22:49:13.485Z,1.30
2022-10-12T22:51:41.075Z,1.70
2022-10-12T22:54:09.006Z,1.67
2022-10-12T22:56:41.877Z,1.30
2022-10-12T22:59:13.336Z,1.70
2022-10-12T23:01:40.601Z,2.10
2022-10-12T23:04:08.249Z,1.42
2022-10-12T23:06:35.753Z,2.25
2022-10-12T23:09:03.825Z,1.63
2022-10-12T23:11:31.969Z,2.28
2022-10-12T23:13:59.661Z,2.08
2022-10-12T23:16:29.806Z,1.80
2022-10-12T23:18:59.939Z,2.20
2022-10-12T23:21:28.956Z,2.05
2022-10-12T23:23:56.350Z,2.40
2022-10-12T23:26:25.414Z,2.50
2022-10-12T23:28:53.692Z,2.33
2022-10-12T23:31:23.241Z,2.22
2022-10-12T23:34:05.277Z,1.63
2022-10-12T23:36:34.430Z,2.03
2022-10-12T23:39:03.291Z,2.03
2022-10-12T23:41:30.395Z,2.15
2022-10-12T23:43:58.093Z,2.00
2022-10-12T23:46:25.244Z,2.22
2022-10-12T23:48:54.051Z,2.33
2022-10-12T23:51:21.211Z,3.15
2022-10-12T23:53:48.407Z,2.72
2022-10-12T23:56:15.684Z,2.70
2022-10-12T23:58:42.846Z,2.40
